Terminal Aerodrome Forecast
Issued by NWS

Home | Current Version | Previous Version | Text Only | Print | Product List | Glossary On
Versions: 1 2 3 4 5 6 7 8 9 10 11 12 13 14 15
000
FTUS45 KTFX 160520
TAFHVR
TAF
KHVR 160520Z 1606/1706 27007KT P6SM SCT020 OVC045
      TEMPO 1606/1610 VRB06KT 3SM -SN BKN020
     FM161000 26007KT P6SM BKN035 OVC060
     FM162200 27007KT P6SM FEW030 SCT140=

USA.gov is the U.S. government's official web portal to all federal, state and local government web resources and services.